sensor_id;sensor_type;location;lat;lon;timestamp;temperature;humidity
58554;DHT22;48119;53.218;6.576;2023-03-01T00:01:23;7.30;99.90
58554;DHT22;48119;53.218;6.576;2023-03-01T00:03:53;7.30;99.90
58554;DHT22;48119;53.218;6.576;2023-03-01T00:06:20;7.30;99.90
58554;DHT22;48119;53.218;6.576;2023-03-01T00:08:47;7.20;99.90
58554;DHT22;48119;53.218;6.576;2023-03-01T00:11:22;7.30;99.90
58554;DHT22;48119;53.218;6.576;2023-03-01T00:13:51;7.30;99.90
58554;DHT22;48119;53.218;6.576;2023-03-01T00:16:23;7.20;99.90
58554;DHT22;48119;53.218;6.576;2023-03-01T00:18:49;7.30;99.90
58554;DHT22;48119;53.218;6.576;2023-03-01T00:21:26;7.30;99.90
58554;DHT22;48119;53.218;6.576;2023-03-01T00:23:52;7.30;99.90
58554;DHT22;48119;53.218;6.576;2023-03-01T00:26:20;7.30;99.90
58554;DHT22;48119;53.218;6.576;2023-03-01T00:28:49;7.40;99.90
58554;DHT22;48119;53.218;6.576;2023-03-01T00:31:23;7.20;99.90
58554;DHT22;48119;53.218;6.576;2023-03-01T00:33:53;7.30;99.90
58554;DHT22;48119;53.218;6.576;2023-03-01T00:36:23;7.20;99.90
58554;DHT22;48119;53.218;6.576;2023-03-01T00:38:50;7.20;99.90
58554;DHT22;48119;53.218;6.576;2023-03-01T00:41:25;7.20;99.90
58554;DHT22;48119;53.218;6.576;2023-03-01T00:43:54;7.30;99.90
58554;DHT22;48119;53.218;6.576;2023-03-01T00:46:23;7.20;99.90
58554;DHT22;48119;53.218;6.576;2023-03-01T00:48:49;7.20;99.90
58554;DHT22;48119;53.218;6.576;2023-03-01T00:51:18;7.20;99.90
58554;DHT22;48119;53.218;6.576;2023-03-01T00:53:44;7.20;99.90
58554;DHT22;48119;53.218;6.576;2023-03-01T00:56:16;7.10;99.90
58554;DHT22;48119;53.218;6.576;2023-03-01T00:58:45;7.10;99.90
58554;DHT22;48119;53.218;6.576;2023-03-01T01:08:23;7.00;99.90
58554;DHT22;48119;53.218;6.576;2023-03-01T01:10:53;7.00;99.90
58554;DHT22;48119;53.218;6.576;2023-03-01T01:13:21;7.00;99.90
58554;DHT22;48119;53.218;6.576;2023-03-01T01:15:50;7.00;99.90
58554;DHT22;48119;53.218;6.576;2023-03-01T01:18:15;7.00;99.90
58554;DHT22;48119;53.218;6.576;2023-03-01T01:20:41;7.00;99.90
58554;DHT22;48119;53.218;6.576;2023-03-01T01:23:07;7.00;99.90
58554;DHT22;48119;53.218;6.576;2023-03-01T01:25:37;6.90;99.90
58554;DHT22;48119;53.218;6.576;2023-03-01T01:28:03;7.00;99.90
58554;DHT22;48119;53.218;6.576;2023-03-01T01:30:29;7.00;99.90
58554;DHT22;48119;53.218;6.576;2023-03-01T01:32:55;6.90;99.90
58554;DHT22;48119;53.218;6.576;2023-03-01T01:35:20;6.90;99.90
58554;DHT22;48119;53.218;6.576;2023-03-01T01:37:46;6.90;99.90
58554;DHT22;48119;53.218;6.576;2023-03-01T01:40:12;6.90;99.90
58554;DHT22;48119;53.218;6.576;2023-03-01T01:42:38;6.80;99.90
58554;DHT22;48119;53.218;6.576;2023-03-01T01:45:27;6.80;99.90
58554;DHT22;48119;53.218;6.576;2023-03-01T01:47:54;6.80;99.90
58554;DHT22;48119;53.218;6.576;2023-03-01T01:50:21;6.80;99.90
58554;DHT22;48119;53.218;6.576;2023-03-01T01:52:48;6.80;99.90
58554;DHT22;48119;53.218;6.576;2023-03-01T01:55:18;6.80;99.90
58554;DHT22;48119;53.218;6.576;2023-03-01T01:58:01;6.80;99.90
58554;DHT22;48119;53.218;6.576;2023-03-01T02:00:28;6.80;99.90
58554;DHT22;48119;53.218;6.576;2023-03-01T02:03:00;6.70;99.90
58554;DHT22;48119;53.218;6.576;2023-03-01T02:05:47;6.70;99.90
58554;DHT22;48119;53.218;6.576;2023-03-01T02:08:18;6.70;99.90
58554;DHT22;48119;53.218;6.576;2023-03-01T02:10:45;6.70;99.90
58554;DHT22;48119;53.218;6.576;2023-03-01T02:13:11;6.70;99.90
58554;DHT22;48119;53.218;6.576;2023-03-01T02:15:39;6.70;99.90
58554;DHT22;48119;53.218;6.576;2023-03-01T02:18:07;6.70;99.90
58554;DHT22;48119;53.218;6.576;2023-03-01T02:23:13;6.70;99.90
58554;DHT22;48119;53.218;6.576;2023-03-01T02:30:54;6.70;99.90
58554;DHT22;48119;53.218;6.576;2023-03-01T02:33:39;6.70;99.90
58554;DHT22;48119;53.218;6.576;2023-03-01T02:36:09;6.70;99.90
58554;DHT22;48119;53.218;6.576;2023-03-01T02:38:37;6.70;99.90
58554;DHT22;48119;53.218;6.576;2023-03-01T02:41:03;6.60;99.90
58554;DHT22;48119;53.218;6.576;2023-03-01T02:43:31;6.60;99.90
58554;DHT22;48119;53.218;6.576;2023-03-01T02:46:02;6.60;99.90
58554;DHT22;48119;53.218;6.576;2023-03-01T02:48:43;6.50;99.90
58554;DHT22;48119;53.218;6.576;2023-03-01T02:51:50;6.50;99.90
58554;DHT22;48119;53.218;6.576;2023-03-01T02:54:40;6.50;99.90
58554;DHT22;48119;53.218;6.576;2023-03-01T02:57:07;6.50;99.90
58554;DHT22;48119;53.218;6.576;2023-03-01T02:59:35;6.50;99.90
58554;DHT22;48119;53.218;6.576;2023-03-01T03:02:28;6.50;99.90
58554;DHT22;48119;53.218;6.576;2023-03-01T03:05:04;6.50;99.90
58554;DHT22;48119;53.218;6.576;2023-03-01T03:07:32;6.40;99.90
58554;DHT22;48119;53.218;6.576;2023-03-01T03:10:01;6.40;99.90
58554;DHT22;48119;53.218;6.576;2023-03-01T03:12:27;6.40;99.90
58554;DHT22;48119;53.218;6.576;2023-03-01T03:14:53;6.40;99.90
58554;DHT22;48119;53.218;6.576;2023-03-01T03:17:18;6.40;99.90
58554;DHT22;48119;53.218;6.576;2023-03-01T03:19:44;6.40;99.90
58554;DHT22;48119;53.218;6.576;2023-03-01T03:22:12;6.30;99.90
58554;DHT22;48119;53.218;6.576;2023-03-01T03:24:38;6.40;99.90
58554;DHT22;48119;53.218;6.576;2023-03-01T03:27:07;6.40;99.90
58554;DHT22;48119;53.218;6.576;2023-03-01T03:29:33;6.40;99.90
58554;DHT22;48119;53.218;6.576;2023-03-01T03:31:58;6.40;99.90
58554;DHT22;48119;53.218;6.576;2023-03-01T03:34:24;6.30;99.90
58554;DHT22;48119;53.218;6.576;2023-03-01T03:36:54;6.40;99.90
58554;DHT22;48119;53.218;6.576;2023-03-01T03:39:25;6.40;99.90
58554;DHT22;48119;53.218;6.576;2023-03-01T03:41:53;6.30;99.90
58554;DHT22;48119;53.218;6.576;2023-03-01T03:44:19;6.30;99.90
58554;DHT22;48119;53.218;6.576;2023-03-01T03:46:45;6.30;99.90
58554;DHT22;48119;53.218;6.576;2023-03-01T03:49:11;6.30;99.90
58554;DHT22;48119;53.218;6.576;2023-03-01T03:51:36;6.30;99.90
58554;DHT22;48119;53.218;6.576;2023-03-01T03:54:02;6.30;99.90
58554;DHT22;48119;53.218;6.576;2023-03-01T03:56:28;6.30;99.90
58554;DHT22;48119;53.218;6.576;2023-03-01T03:58:54;6.30;99.90
58554;DHT22;48119;53.218;6.576;2023-03-01T04:01:20;6.30;99.90
58554;DHT22;48119;53.218;6.576;2023-03-01T04:03:45;6.30;99.90
58554;DHT22;48119;53.218;6.576;2023-03-01T04:06:14;6.30;99.90
58554;DHT22;48119;53.218;6.576;2023-03-01T04:08:40;6.30;99.80
58554;DHT22;48119;53.218;6.576;2023-03-01T04:11:06;6.30;99.80
58554;DHT22;48119;53.218;6.576;2023-03-01T04:13:52;6.20;99.80
58554;DHT22;48119;53.218;6.576;2023-03-01T04:16:19;6.20;99.80
58554;DHT22;48119;53.218;6.576;2023-03-01T04:18:45;6.20;99.80
58554;DHT22;48119;53.218;6.576;2023-03-01T04:21:11;6.20;99.80
58554;DHT22;48119;53.218;6.576;2023-03-01T04:23:37;6.20;99.80
58554;DHT22;48119;53.218;6.576;2023-03-01T04:26:03;6.20;99.70
58554;DHT22;48119;53.218;6.576;2023-03-01T04:28:38;6.20;99.60
58554;DHT22;48119;53.218;6.576;2023-03-01T04:31:11;6.20;99.50
58554;DHT22;48119;53.218;6.576;2023-03-01T04:33:46;6.10;99.60
58554;DHT22;48119;53.218;6.576;2023-03-01T04:36:13;6.10;99.50
58554;DHT22;48119;53.218;6.576;2023-03-01T04:38:40;6.00;99.50
58554;DHT22;48119;53.218;6.576;2023-03-01T04:41:07;6.00;99.30
58554;DHT22;48119;53.218;6.576;2023-03-01T04:43:34;5.90;99.20
58554;DHT22;48119;53.218;6.576;2023-03-01T04:46:04;5.80;99.10
58554;DHT22;48119;53.218;6.576;2023-03-01T04:48:32;5.80;98.90
58554;DHT22;48119;53.218;6.576;2023-03-01T04:50:59;5.70;98.80
58554;DHT22;48119;53.218;6.576;2023-03-01T04:53:25;5.70;98.80
58554;DHT22;48119;53.218;6.576;2023-03-01T04:55:51;5.60;98.60
58554;DHT22;48119;53.218;6.576;2023-03-01T04:58:17;5.60;98.60
58554;DHT22;48119;53.218;6.576;2023-03-01T05:00:42;5.50;98.50
58554;DHT22;48119;53.218;6.576;2023-03-01T05:03:08;5.40;98.40
58554;DHT22;48119;53.218;6.576;2023-03-01T05:05:36;5.40;98.40
58554;DHT22;48119;53.218;6.576;2023-03-01T05:08:05;5.30;98.50
58554;DHT22;48119;53.218;6.576;2023-03-01T05:10:32;5.30;98.50
58554;DHT22;48119;53.218;6.576;2023-03-01T05:12:58;5.20;98.40
58554;DHT22;48119;53.218;6.576;2023-03-01T05:15:29;5.20;98.50
58554;DHT22;48119;53.218;6.576;2023-03-01T05:17:58;5.20;98.40
58554;DHT22;48119;53.218;6.576;2023-03-01T05:20:30;5.10;98.40
58554;DHT22;48119;53.218;6.576;2023-03-01T05:22:59;5.10;98.40
58554;DHT22;48119;53.218;6.576;2023-03-01T05:25:25;5.10;98.50
58554;DHT22;48119;53.218;6.576;2023-03-01T05:27:51;5.10;98.50
58554;DHT22;48119;53.218;6.576;2023-03-01T05:30:17;5.10;98.40
58554;DHT22;48119;53.218;6.576;2023-03-01T05:32:45;5.20;98.50
58554;DHT22;48119;53.218;6.576;2023-03-01T05:35:17;5.10;98.40
58554;DHT22;48119;53.218;6.576;2023-03-01T05:37:45;5.20;98.40
58554;DHT22;48119;53.218;6.576;2023-03-01T05:40:14;5.10;98.40
58554;DHT22;48119;53.218;6.576;2023-03-01T05:42:53;5.10;98.40
58554;DHT22;48119;53.218;6.576;2023-03-01T05:45:20;5.10;98.50
58554;DHT22;48119;53.218;6.576;2023-03-01T05:47:48;5.10;98.50
58554;DHT22;48119;53.218;6.576;2023-03-01T05:50:19;5.10;98.50
58554;DHT22;48119;53.218;6.576;2023-03-01T05:52:47;5.10;98.50
58554;DHT22;48119;53.218;6.576;2023-03-01T05:55:15;5.10;98.40
58554;DHT22;48119;53.218;6.576;2023-03-01T05:57:41;5.10;98.40
58554;DHT22;48119;53.218;6.576;2023-03-01T06:00:08;5.20;98.50
58554;DHT22;48119;53.218;6.576;2023-03-01T06:02:33;5.10;98.80
58554;DHT22;48119;53.218;6.576;2023-03-01T06:04:59;5.20;98.60
58554;DHT22;48119;53.218;6.576;2023-03-01T06:07:25;5.20;98.60
58554;DHT22;48119;53.218;6.576;2023-03-01T06:09:51;5.20;98.60
58554;DHT22;48119;53.218;6.576;2023-03-01T06:12:16;5.20;98.40
58554;DHT22;48119;53.218;6.576;2023-03-01T06:14:43;5.20;98.40
58554;DHT22;48119;53.218;6.576;2023-03-01T06:17:10;5.20;98.50
58554;DHT22;48119;53.218;6.576;2023-03-01T06:19:36;5.20;98.40
58554;DHT22;48119;53.218;6.576;2023-03-01T06:22:02;5.20;98.40
58554;DHT22;48119;53.218;6.576;2023-03-01T06:24:27;5.20;98.50
58554;DHT22;48119;53.218;6.576;2023-03-01T06:26:54;5.30;98.50
58554;DHT22;48119;53.218;6.576;2023-03-01T06:29:20;5.30;98.50
58554;DHT22;48119;53.218;6.576;2023-03-01T06:31:45;5.20;98.40
58554;DHT22;48119;53.218;6.576;2023-03-01T06:34:11;5.20;98.40
58554;DHT22;48119;53.218;6.576;2023-03-01T06:36:39;5.20;98.40
58554;DHT22;48119;53.218;6.576;2023-03-01T06:39:06;5.20;98.50
58554;DHT22;48119;53.218;6.576;2023-03-01T06:41:32;5.10;98.50
58554;DHT22;48119;53.218;6.576;2023-03-01T06:43:59;5.20;98.50
58554;DHT22;48119;53.218;6.576;2023-03-01T06:46:25;5.10;98.50
58554;DHT22;48119;53.218;6.576;2023-03-01T06:48:50;5.10;98.50
58554;DHT22;48119;53.218;6.576;2023-03-01T06:51:16;5.20;98.50
58554;DHT22;48119;53.218;6.576;2023-03-01T06:53:42;5.20;98.40
58554;DHT22;48119;53.218;6.576;2023-03-01T06:56:07;5.20;98.40
58554;DHT22;48119;53.218;6.576;2023-03-01T06:58:33;5.20;98.40
58554;DHT22;48119;53.218;6.576;2023-03-01T07:00:59;5.20;98.60
58554;DHT22;48119;53.218;6.576;2023-03-01T07:03:25;5.20;98.60
58554;DHT22;48119;53.218;6.576;2023-03-01T07:05:51;5.20;98.70
58554;DHT22;48119;53.218;6.576;2023-03-01T07:08:19;5.20;98.80
58554;DHT22;48119;53.218;6.576;2023-03-01T07:10:45;5.20;99.20
58554;DHT22;48119;53.218;6.576;2023-03-01T07:13:11;5.20;99.10
58554;DHT22;48119;53.218;6.576;2023-03-01T07:15:36;5.20;99.30
58554;DHT22;48119;53.218;6.576;2023-03-01T07:18:02;5.30;99.40
58554;DHT22;48119;53.218;6.576;2023-03-01T07:20:28;5.20;99.30
58554;DHT22;48119;53.218;6.576;2023-03-01T07:22:55;5.30;99.40
58554;DHT22;48119;53.218;6.576;2023-03-01T07:25:21;5.30;99.50
58554;DHT22;48119;53.218;6.576;2023-03-01T07:27:51;5.30;99.40
58554;DHT22;48119;53.218;6.576;2023-03-01T07:30:18;5.30;99.40
58554;DHT22;48119;53.218;6.576;2023-03-01T07:32:44;5.30;99.50
58554;DHT22;48119;53.218;6.576;2023-03-01T07:35:11;5.30;99.60
58554;DHT22;48119;53.218;6.576;2023-03-01T07:37:37;5.30;99.70
58554;DHT22;48119;53.218;6.576;2023-03-01T07:40:03;5.40;99.70
58554;DHT22;48119;53.218;6.576;2023-03-01T07:42:29;5.40;99.70
58554;DHT22;48119;53.218;6.576;2023-03-01T07:44:54;5.50;99.80
58554;DHT22;48119;53.218;6.576;2023-03-01T07:47:20;5.40;99.80
58554;DHT22;48119;53.218;6.576;2023-03-01T07:49:46;5.50;99.90
58554;DHT22;48119;53.218;6.576;2023-03-01T07:52:11;5.50;99.90
58554;DHT22;48119;53.218;6.576;2023-03-01T07:54:38;5.60;99.90
58554;DHT22;48119;53.218;6.576;2023-03-01T07:57:04;5.50;99.90
58554;DHT22;48119;53.218;6.576;2023-03-01T07:59:29;5.60;99.90
58554;DHT22;48119;53.218;6.576;2023-03-01T08:01:56;5.60;99.90
58554;DHT22;48119;53.218;6.576;2023-03-01T08:04:22;5.60;99.90
58554;DHT22;48119;53.218;6.576;2023-03-01T08:06:50;5.70;99.90
58554;DHT22;48119;53.218;6.576;2023-03-01T08:09:16;5.60;99.90
58554;DHT22;48119;53.218;6.576;2023-03-01T08:11:42;5.70;99.90
58554;DHT22;48119;53.218;6.576;2023-03-01T08:14:08;5.70;99.90
58554;DHT22;48119;53.218;6.576;2023-03-01T08:16:34;5.70;99.90
58554;DHT22;48119;53.218;6.576;2023-03-01T08:19:10;5.80;99.90
58554;DHT22;48119;53.218;6.576;2023-03-01T08:21:36;5.80;99.90
58554;DHT22;48119;53.218;6.576;2023-03-01T08:24:03;5.80;99.90
58554;DHT22;48119;53.218;6.576;2023-03-01T08:26:30;5.90;99.90
58554;DHT22;48119;53.218;6.576;2023-03-01T08:28:56;5.90;99.90
58554;DHT22;48119;53.218;6.576;2023-03-01T08:31:25;6.00;99.90
58554;DHT22;48119;53.218;6.576;2023-03-01T08:33:55;6.00;99.90
58554;DHT22;48119;53.218;6.576;2023-03-01T08:36:22;6.00;99.90
58554;DHT22;48119;53.218;6.576;2023-03-01T08:38:48;6.00;99.90
58554;DHT22;48119;53.218;6.576;2023-03-01T08:41:14;6.10;99.90
58554;DHT22;48119;53.218;6.576;2023-03-01T08:43:40;6.10;99.90
58554;DHT22;48119;53.218;6.576;2023-03-01T08:46:06;6.20;99.90
58554;DHT22;48119;53.218;6.576;2023-03-01T08:48:32;6.20;99.90
58554;DHT22;48119;53.218;6.576;2023-03-01T08:51:07;6.30;99.90
58554;DHT22;48119;53.218;6.576;2023-03-01T08:53:33;6.50;99.90
58554;DHT22;48119;53.218;6.576;2023-03-01T08:56:00;6.80;99.90
58554;DHT22;48119;53.218;6.576;2023-03-01T08:58:28;6.80;99.90
58554;DHT22;48119;53.218;6.576;2023-03-01T09:00:54;6.80;99.90
58554;DHT22;48119;53.218;6.576;2023-03-01T09:03:21;6.80;99.80
58554;DHT22;48119;53.218;6.576;2023-03-01T09:05:46;6.70;99.80
58554;DHT22;48119;53.218;6.576;2023-03-01T09:08:12;6.70;99.80
58554;DHT22;48119;53.218;6.576;2023-03-01T09:10:38;6.70;99.80
58554;DHT22;48119;53.218;6.576;2023-03-01T09:13:04;6.80;99.90
58554;DHT22;48119;53.218;6.576;2023-03-01T09:15:30;6.90;99.60
58554;DHT22;48119;53.218;6.576;2023-03-01T09:17:56;6.90;99.40
58554;DHT22;48119;53.218;6.576;2023-03-01T09:20:22;6.90;99.20
58554;DHT22;48119;53.218;6.576;2023-03-01T09:22:47;6.90;99.00
58554;DHT22;48119;53.218;6.576;2023-03-01T09:25:13;7.00;98.90
58554;DHT22;48119;53.218;6.576;2023-03-01T09:27:39;7.00;98.70
58554;DHT22;48119;53.218;6.576;2023-03-01T09:30:05;7.00;98.70
58554;DHT22;48119;53.218;6.576;2023-03-01T09:32:31;7.00;98.50
58554;DHT22;48119;53.218;6.576;2023-03-01T09:34:57;7.00;98.40
58554;DHT22;48119;53.218;6.576;2023-03-01T09:37:33;6.90;98.40
58554;DHT22;48119;53.218;6.576;2023-03-01T09:39:59;7.00;98.30
58554;DHT22;48119;53.218;6.576;2023-03-01T09:42:26;7.10;98.10
58554;DHT22;48119;53.218;6.576;2023-03-01T09:45:56;7.10;97.70
58554;DHT22;48119;53.218;6.576;2023-03-01T09:48:03;7.10;97.60
58554;DHT22;48119;53.218;6.576;2023-03-01T09:50:41;7.20;97.50
58554;DHT22;48119;53.218;6.576;2023-03-01T10:01:34;7.30;97.40
58554;DHT22;48119;53.218;6.576;2023-03-01T10:07:17;7.30;97.10
58554;DHT22;48119;53.218;6.576;2023-03-01T10:09:47;7.40;97.00
58554;DHT22;48119;53.218;6.576;2023-03-01T10:12:31;7.30;96.30
58554;DHT22;48119;53.218;6.576;2023-03-01T10:15:15;7.40;95.70
58554;DHT22;48119;53.218;6.576;2023-03-01T10:17:57;7.50;95.90
58554;DHT22;48119;53.218;6.576;2023-03-01T10:20:52;7.50;95.80
58554;DHT22;48119;53.218;6.576;2023-03-01T10:23:18;7.60;95.70
58554;DHT22;48119;53.218;6.576;2023-03-01T10:28:44;7.70;96.00
58554;DHT22;48119;53.218;6.576;2023-03-01T10:31:18;7.70;96.10
58554;DHT22;48119;53.218;6.576;2023-03-01T10:33:45;7.80;96.00
58554;DHT22;48119;53.218;6.576;2023-03-01T10:36:13;7.80;95.50
58554;DHT22;48119;53.218;6.576;2023-03-01T10:38:53;7.90;95.30
58554;DHT22;48119;53.218;6.576;2023-03-01T10:41:20;8.00;95.00
58554;DHT22;48119;53.218;6.576;2023-03-01T10:43:55;8.00;95.00
58554;DHT22;48119;53.218;6.576;2023-03-01T10:51:33;8.20;95.30
58554;DHT22;48119;53.218;6.576;2023-03-01T10:53:59;8.20;95.40
58554;DHT22;48119;53.218;6.576;2023-03-01T10:56:25;8.20;95.50
58554;DHT22;48119;53.218;6.576;2023-03-01T10:59:03;8.30;95.70
58554;DHT22;48119;53.218;6.576;2023-03-01T11:01:31;8.40;95.70
58554;DHT22;48119;53.218;6.576;2023-03-01T11:06:37;8.50;96.00
58554;DHT22;48119;53.218;6.576;2023-03-01T11:09:23;8.50;96.00
58554;DHT22;48119;53.218;6.576;2023-03-01T11:11:54;8.60;95.90
58554;DHT22;48119;53.218;6.576;2023-03-01T11:14:26;8.60;95.80
58554;DHT22;48119;53.218;6.576;2023-03-01T11:17:01;8.60;95.80
58554;DHT22;48119;53.218;6.576;2023-03-01T11:19:27;8.70;95.70
58554;DHT22;48119;53.218;6.576;2023-03-01T11:21:57;8.70;95.60
58554;DHT22;48119;53.218;6.576;2023-03-01T11:24:38;8.80;95.50
58554;DHT22;48119;53.218;6.576;2023-03-01T11:27:14;8.80;95.30
58554;DHT22;48119;53.218;6.576;2023-03-01T11:29:48;8.90;95.50
58554;DHT22;48119;53.218;6.576;2023-03-01T11:32:18;8.90;95.30
58554;DHT22;48119;53.218;6.576;2023-03-01T11:34:54;9.00;94.70
58554;DHT22;48119;53.218;6.576;2023-03-01T11:37:55;8.90;94.40
58554;DHT22;48119;53.218;6.576;2023-03-01T11:41:11;9.00;94.20
58554;DHT22;48119;53.218;6.576;2023-03-01T11:43:51;9.00;93.60
58554;DHT22;48119;53.218;6.576;2023-03-01T11:56:54;9.20;93.40
58554;DHT22;48119;53.218;6.576;2023-03-01T11:59:44;9.20;92.90
58554;DHT22;48119;53.218;6.576;2023-03-01T12:08:28;9.30;92.10
58554;DHT22;48119;53.218;6.576;2023-03-01T12:19:28;9.40;91.40
58554;DHT22;48119;53.218;6.576;2023-03-01T12:33:50;9.50;91.40
58554;DHT22;48119;53.218;6.576;2023-03-01T12:36:18;9.50;91.60
58554;DHT22;48119;53.218;6.576;2023-03-01T12:42:01;9.50;91.90
58554;DHT22;48119;53.218;6.576;2023-03-01T12:50:00;9.50;92.40
58554;DHT22;48119;53.218;6.576;2023-03-01T12:52:39;9.50;92.50
58554;DHT22;48119;53.218;6.576;2023-03-01T13:13:00;9.40;91.00
58554;DHT22;48119;53.218;6.576;2023-03-01T13:18:02;9.40;91.60
58554;DHT22;48119;53.218;6.576;2023-03-01T13:28:39;9.40;91.70
58554;DHT22;48119;53.218;6.576;2023-03-01T13:36:11;9.40;91.80
58554;DHT22;48119;53.218;6.576;2023-03-01T13:38:46;9.40;91.90
58554;DHT22;48119;53.218;6.576;2023-03-01T13:41:17;9.40;91.90
58554;DHT22;48119;53.218;6.576;2023-03-01T13:49:59;9.40;92.00
58554;DHT22;48119;53.218;6.576;2023-03-01T13:58:01;9.50;92.00
58554;DHT22;48119;53.218;6.576;2023-03-01T14:00:39;9.50;92.00
58554;DHT22;48119;53.218;6.576;2023-03-01T14:03:18;9.50;91.90
58554;DHT22;48119;53.218;6.576;2023-03-01T14:06:07;9.50;92.10
58554;DHT22;48119;53.218;6.576;2023-03-01T14:08:35;9.50;91.90
58554;DHT22;48119;53.218;6.576;2023-03-01T14:17:00;9.50;92.10
58554;DHT22;48119;53.218;6.576;2023-03-01T14:19:29;9.50;91.90
58554;DHT22;48119;53.218;6.576;2023-03-01T14:22:20;9.50;92.10
58554;DHT22;48119;53.218;6.576;2023-03-01T14:25:21;9.60;92.20
58554;DHT22;48119;53.218;6.576;2023-03-01T14:27:44;9.60;92.30
58554;DHT22;48119;53.218;6.576;2023-03-01T14:30:19;9.60;92.40
58554;DHT22;48119;53.218;6.576;2023-03-01T14:32:56;9.60;92.20
58554;DHT22;48119;53.218;6.576;2023-03-01T14:35:34;9.50;92.00
58554;DHT22;48119;53.218;6.576;2023-03-01T14:38:00;9.50;92.40
58554;DHT22;48119;53.218;6.576;2023-03-01T14:40:29;9.60;92.50
58554;DHT22;48119;53.218;6.576;2023-03-01T14:42:58;9.60;92.50
58554;DHT22;48119;53.218;6.576;2023-03-01T14:45:29;9.60;92.50
58554;DHT22;48119;53.218;6.576;2023-03-01T14:48:00;9.60;92.60
58554;DHT22;48119;53.218;6.576;2023-03-01T14:50:29;9.60;92.60
58554;DHT22;48119;53.218;6.576;2023-03-01T14:53:05;9.60;92.70
58554;DHT22;48119;53.218;6.576;2023-03-01T14:55:38;9.60;92.70
58554;DHT22;48119;53.218;6.576;2023-03-01T14:58:13;9.60;92.80
58554;DHT22;48119;53.218;6.576;2023-03-01T15:00:47;9.70;92.80
58554;DHT22;48119;53.218;6.576;2023-03-01T15:03:20;9.70;92.80
58554;DHT22;48119;53.218;6.576;2023-03-01T15:05:49;9.70;92.80
58554;DHT22;48119;53.218;6.576;2023-03-01T15:08:24;9.70;92.90
58554;DHT22;48119;53.218;6.576;2023-03-01T15:13:48;9.70;92.90
58554;DHT22;48119;53.218;6.576;2023-03-01T15:16:17;9.60;93.00
58554;DHT22;48119;53.218;6.576;2023-03-01T15:19:04;9.70;93.00
58554;DHT22;48119;53.218;6.576;2023-03-01T15:21:37;9.70;92.90
58554;DHT22;48119;53.218;6.576;2023-03-01T15:29:29;9.70;93.00
58554;DHT22;48119;53.218;6.576;2023-03-01T15:32:04;9.70;93.00
58554;DHT22;48119;53.218;6.576;2023-03-01T15:34:32;9.70;93.10
58554;DHT22;48119;53.218;6.576;2023-03-01T15:37:03;9.70;93.10
58554;DHT22;48119;53.218;6.576;2023-03-01T15:39:42;9.70;93.20
58554;DHT22;48119;53.218;6.576;2023-03-01T15:48:17;9.70;93.40
58554;DHT22;48119;53.218;6.576;2023-03-01T15:50:53;9.70;93.30
58554;DHT22;48119;53.218;6.576;2023-03-01T15:53:23;9.70;93.30
58554;DHT22;48119;53.218;6.576;2023-03-01T15:55:49;9.70;93.30
58554;DHT22;48119;53.218;6.576;2023-03-01T15:58:23;9.70;93.40
58554;DHT22;48119;53.218;6.576;2023-03-01T16:00:51;9.70;93.40
58554;DHT22;48119;53.218;6.576;2023-03-01T16:03:22;9.70;93.40
58554;DHT22;48119;53.218;6.576;2023-03-01T16:05:49;9.70;93.40
58554;DHT22;48119;53.218;6.576;2023-03-01T16:08:16;9.70;93.40
58554;DHT22;48119;53.218;6.576;2023-03-01T16:10:45;9.70;93.40
58554;DHT22;48119;53.218;6.576;2023-03-01T16:13:12;9.70;93.40
58554;DHT22;48119;53.218;6.576;2023-03-01T16:15:38;9.60;93.40
58554;DHT22;48119;53.218;6.576;2023-03-01T16:18:05;9.60;93.40
58554;DHT22;48119;53.218;6.576;2023-03-01T16:20:32;9.60;93.50
58554;DHT22;48119;53.218;6.576;2023-03-01T16:22:59;9.60;93.60
58554;DHT22;48119;53.218;6.576;2023-03-01T16:25:28;9.50;93.60
58554;DHT22;48119;53.218;6.576;2023-03-01T16:27:54;9.60;93.80
58554;DHT22;48119;53.218;6.576;2023-03-01T16:30:22;9.60;93.90
58554;DHT22;48119;53.218;6.576;2023-03-01T16:32:49;9.50;94.00
58554;DHT22;48119;53.218;6.576;2023-03-01T16:35:17;9.50;94.00
58554;DHT22;48119;53.218;6.576;2023-03-01T16:37:44;9.50;94.90
58554;DHT22;48119;53.218;6.576;2023-03-01T16:40:25;9.50;95.90
58554;DHT22;48119;53.218;6.576;2023-03-01T16:42:55;9.50;96.80
58554;DHT22;48119;53.218;6.576;2023-03-01T16:45:25;9.40;97.00
58554;DHT22;48119;53.218;6.576;2023-03-01T16:47:52;9.50;97.50
58554;DHT22;48119;53.218;6.576;2023-03-01T16:50:18;9.40;97.80
58554;DHT22;48119;53.218;6.576;2023-03-01T16:52:46;9.40;98.00
58554;DHT22;48119;53.218;6.576;2023-03-01T16:55:12;9.40;98.40
58554;DHT22;48119;53.218;6.576;2023-03-01T16:57:41;9.30;98.70
58554;DHT22;48119;53.218;6.576;2023-03-01T17:00:11;9.40;98.90
58554;DHT22;48119;53.218;6.576;2023-03-01T17:02:39;9.30;99.10
58554;DHT22;48119;53.218;6.576;2023-03-01T17:05:09;9.30;99.10
58554;DHT22;48119;53.218;6.576;2023-03-01T17:07:37;9.20;99.60
58554;DHT22;48119;53.218;6.576;2023-03-01T17:10:05;9.20;99.40
58554;DHT22;48119;53.218;6.576;2023-03-01T17:12:31;9.20;99.50
58554;DHT22;48119;53.218;6.576;2023-03-01T17:15:00;9.20;99.60
58554;DHT22;48119;53.218;6.576;2023-03-01T17:17:26;9.10;99.80
58554;DHT22;48119;53.218;6.576;2023-03-01T17:19:52;9.10;99.90
58554;DHT22;48119;53.218;6.576;2023-03-01T17:22:18;9.10;99.90
58554;DHT22;48119;53.218;6.576;2023-03-01T17:24:44;9.10;99.90
58554;DHT22;48119;53.218;6.576;2023-03-01T17:27:11;9.10;99.90
58554;DHT22;48119;53.218;6.576;2023-03-01T17:29:38;9.10;99.90
58554;DHT22;48119;53.218;6.576;2023-03-01T17:32:05;9.10;99.90
58554;DHT22;48119;53.218;6.576;2023-03-01T17:34:32;9.00;99.90
58554;DHT22;48119;53.218;6.576;2023-03-01T17:36:57;9.00;99.90
58554;DHT22;48119;53.218;6.576;2023-03-01T17:39:24;9.00;99.90
58554;DHT22;48119;53.218;6.576;2023-03-01T17:42:01;8.90;99.90
58554;DHT22;48119;53.218;6.576;2023-03-01T17:44:27;8.90;99.90
58554;DHT22;48119;53.218;6.576;2023-03-01T17:46:54;8.90;99.90
58554;DHT22;48119;53.218;6.576;2023-03-01T17:49:20;8.80;99.90
58554;DHT22;48119;53.218;6.576;2023-03-01T17:51:45;8.80;99.90
58554;DHT22;48119;53.218;6.576;2023-03-01T17:54:11;8.80;99.90
58554;DHT22;48119;53.218;6.576;2023-03-01T17:56:37;8.80;99.90
58554;DHT22;48119;53.218;6.576;2023-03-01T17:59:04;8.70;99.90
58554;DHT22;48119;53.218;6.576;2023-03-01T18:01:30;8.70;99.90
58554;DHT22;48119;53.218;6.576;2023-03-01T18:03:56;8.70;99.90
58554;DHT22;48119;53.218;6.576;2023-03-01T18:06:24;8.70;99.90
58554;DHT22;48119;53.218;6.576;2023-03-01T18:08:50;8.60;99.90
58554;DHT22;48119;53.218;6.576;2023-03-01T18:11:18;8.60;99.90
58554;DHT22;48119;53.218;6.576;2023-03-01T18:13:44;8.50;99.90
58554;DHT22;48119;53.218;6.576;2023-03-01T18:16:15;8.40;99.90
58554;DHT22;48119;53.218;6.576;2023-03-01T18:18:42;8.30;99.90
58554;DHT22;48119;53.218;6.576;2023-03-01T18:21:10;8.20;99.90
58554;DHT22;48119;53.218;6.576;2023-03-01T18:23:36;8.20;99.90
58554;DHT22;48119;53.218;6.576;2023-03-01T18:26:08;8.20;99.90
58554;DHT22;48119;53.218;6.576;2023-03-01T18:28:34;8.20;99.90